sensor_id;sensor_type;location;lat;lon;timestamp;P1;durP1;ratioP1;P2;durP2;ratioP2
75744;SDS011;64359;51.366;-0.222;2022-10-22T09:41:05;16.20;;;9.20;;
75744;SDS011;64359;51.366;-0.222;2022-10-22T09:42:00;17.20;;;9.40;;
75744;SDS011;64359;51.366;-0.222;2022-10-22T09:42:55;17.50;;;9.90;;
75744;SDS011;64359;51.366;-0.222;2022-10-22T09:43:50;15.10;;;10.10;;
75744;SDS011;64359;51.366;-0.222;2022-10-22T09:44:45;14.10;;;9.70;;
75744;SDS011;64359;51.366;-0.222;2022-10-22T09:45:54;15.80;;;10.40;;
75744;SDS011;64359;51.366;-0.222;2022-10-22T09:46:50;14.70;;;9.40;;
75744;SDS011;64359;51.366;-0.222;2022-10-22T09:47:44;18.40;;;11.90;;
75744;SDS011;64359;51.366;-0.222;2022-10-22T09:48:39;15.10;;;9.50;;
75744;SDS011;64359;51.366;-0.222;2022-10-22T09:49:36;14.60;;;9.60;;
75744;SDS011;64359;51.366;-0.222;2022-10-22T09:50:36;14.70;;;9.90;;
75744;SDS011;64359;51.366;-0.222;2022-10-22T09:51:39;14.50;;;9.70;;
75744;SDS011;64359;51.366;-0.222;2022-10-22T09:52:42;15.00;;;10.70;;
75744;SDS011;64359;51.366;-0.222;2022-10-22T09:53:38;14.00;;;9.50;;
75744;SDS011;64359;51.366;-0.222;2022-10-22T09:54:39;16.10;;;10.80;;
75744;SDS011;64359;51.366;-0.222;2022-10-22T09:55:36;12.80;;;8.70;;
75744;SDS011;64359;51.366;-0.222;2022-10-22T09:56:34;15.00;;;8.60;;
75744;SDS011;64359;51.366;-0.222;2022-10-22T09:57:32;15.60;;;9.10;;
75744;SDS011;64359;51.366;-0.222;2022-10-22T09:58:27;11.70;;;8.60;;
75744;SDS011;64359;51.366;-0.222;2022-10-22T09:59:25;11.80;;;8.10;;
75744;SDS011;64359;51.366;-0.222;2022-10-22T10:00:23;11.80;;;8.10;;
75744;SDS011;64359;51.366;-0.222;2022-10-22T10:01:19;12.30;;;7.40;;
75744;SDS011;64359;51.366;-0.222;2022-10-22T10:02:17;12.30;;;7.50;;
75744;SDS011;64359;51.366;-0.222;2022-10-22T10:03:16;13.40;;;7.60;;
75744;SDS011;64359;51.366;-0.222;2022-10-22T10:04:14;13.10;;;8.30;;
75744;SDS011;64359;51.366;-0.222;2022-10-22T10:05:16;12.80;;;8.80;;
75744;SDS011;64359;51.366;-0.222;2022-10-22T10:06:15;11.70;;;7.60;;
75744;SDS011;64359;51.366;-0.222;2022-10-22T10:07:15;15.30;;;8.40;;
75744;SDS011;64359;51.366;-0.222;2022-10-22T10:08:12;15.80;;;7.90;;
75744;SDS011;64359;51.366;-0.222;2022-10-22T10:09:13;11.60;;;7.60;;
75744;SDS011;64359;51.366;-0.222;2022-10-22T10:10:15;14.20;;;8.20;;
75744;SDS011;64359;51.366;-0.222;2022-10-22T10:11:13;11.00;;;7.60;;
75744;SDS011;64359;51.366;-0.222;2022-10-22T10:12:20;11.40;;;7.30;;
75744;SDS011;64359;51.366;-0.222;2022-10-22T10:13:39;11.40;;;7.60;;
75744;SDS011;64359;51.366;-0.222;2022-10-22T10:15:36;12.00;;;7.10;;
75744;SDS011;64359;51.366;-0.222;2022-10-22T10:16:39;10.70;;;6.70;;
75744;SDS011;64359;51.366;-0.222;2022-10-22T10:17:42;9.80;;;7.70;;
75744;SDS011;64359;51.366;-0.222;2022-10-22T10:18:50;10.90;;;7.80;;
75744;SDS011;64359;51.366;-0.222;2022-10-22T10:19:57;13.20;;;7.40;;
75744;SDS011;64359;51.366;-0.222;2022-10-22T10:21:08;9.60;;;7.10;;
75744;SDS011;64359;51.366;-0.222;2022-10-22T10:22:12;15.30;;;7.70;;
75744;SDS011;64359;51.366;-0.222;2022-10-22T10:23:18;14.40;;;7.50;;
75744;SDS011;64359;51.366;-0.222;2022-10-22T10:24:24;9.50;;;6.30;;
75744;SDS011;64359;51.366;-0.222;2022-10-22T10:25:33;11.80;;;6.90;;
75744;SDS011;64359;51.366;-0.222;2022-10-22T10:26:34;10.70;;;6.70;;
75744;SDS011;64359;51.366;-0.222;2022-10-22T10:27:35;9.60;;;6.20;;
75744;SDS011;64359;51.366;-0.222;2022-10-22T10:28:37;9.60;;;5.80;;
75744;SDS011;64359;51.366;-0.222;2022-10-22T10:29:45;8.20;;;7.00;;
75744;SDS011;64359;51.366;-0.222;2022-10-22T10:30:53;9.50;;;6.50;;
75744;SDS011;64359;51.366;-0.222;2022-10-22T10:31:57;12.30;;;6.90;;
75744;SDS011;64359;51.366;-0.222;2022-10-22T10:33:07;9.20;;;6.40;;
75744;SDS011;64359;51.366;-0.222;2022-10-22T10:34:16;11.00;;;6.30;;
75744;SDS011;64359;51.366;-0.222;2022-10-22T10:35:23;9.60;;;6.50;;
75744;SDS011;64359;51.366;-0.222;2022-10-22T10:36:21;10.20;;;6.70;;
75744;SDS011;64359;51.366;-0.222;2022-10-22T10:37:28;11.70;;;6.30;;
75744;SDS011;64359;51.366;-0.222;2022-10-22T10:38:33;9.20;;;6.20;;
75744;SDS011;64359;51.366;-0.222;2022-10-22T10:39:36;11.70;;;7.20;;
75744;SDS011;64359;51.366;-0.222;2022-10-22T10:40:46;8.70;;;6.30;;
75744;SDS011;64359;51.366;-0.222;2022-10-22T10:41:46;8.70;;;6.30;;
75744;SDS011;64359;51.366;-0.222;2022-10-22T10:42:50;12.70;;;7.60;;
75744;SDS011;64359;51.366;-0.222;2022-10-22T10:43:51;9.70;;;5.80;;
75744;SDS011;64359;51.366;-0.222;2022-10-22T10:45:04;13.80;;;6.70;;
75744;SDS011;64359;51.366;-0.222;2022-10-22T10:46:08;10.90;;;5.90;;
75744;SDS011;64359;51.366;-0.222;2022-10-22T10:47:14;9.70;;;6.70;;
75744;SDS011;64359;51.366;-0.222;2022-10-22T10:48:21;12.40;;;6.50;;
75744;SDS011;64359;51.366;-0.222;2022-10-22T10:49:28;9.10;;;6.70;;
75744;SDS011;64359;51.366;-0.222;2022-10-22T10:50:25;8.90;;;5.90;;
75744;SDS011;64359;51.366;-0.222;2022-10-22T10:51:28;8.80;;;5.70;;
75744;SDS011;64359;51.366;-0.222;2022-10-22T10:52:30;9.40;;;5.90;;
75744;SDS011;64359;51.366;-0.222;2022-10-22T10:53:35;10.10;;;6.40;;
75744;SDS011;64359;51.366;-0.222;2022-10-22T10:54:44;9.50;;;6.00;;
75744;SDS011;64359;51.366;-0.222;2022-10-22T10:56:00;7.50;;;5.40;;
75744;SDS011;64359;51.366;-0.222;2022-10-22T10:57:05;9.70;;;6.00;;
75744;SDS011;64359;51.366;-0.222;2022-10-22T10:58:14;12.10;;;6.00;;
75744;SDS011;64359;51.366;-0.222;2022-10-22T10:59:18;11.30;;;6.20;;
75744;SDS011;64359;51.366;-0.222;2022-10-22T11:00:21;10.20;;;6.10;;
75744;SDS011;64359;51.366;-0.222;2022-10-22T11:01:21;9.00;;;6.80;;
75744;SDS011;64359;51.366;-0.222;2022-10-22T11:02:30;12.00;;;7.30;;
75744;SDS011;64359;51.366;-0.222;2022-10-22T11:06:45;10.80;;;7.50;;
75744;SDS011;64359;51.366;-0.222;2022-10-22T11:07:41;11.00;;;7.70;;
75744;SDS011;64359;51.366;-0.222;2022-10-22T11:08:41;12.00;;;9.10;;
75744;SDS011;64359;51.366;-0.222;2022-10-22T11:09:42;13.50;;;8.80;;
75744;SDS011;64359;51.366;-0.222;2022-10-22T11:10:45;11.60;;;9.10;;
75744;SDS011;64359;51.366;-0.222;2022-10-22T11:11:43;13.60;;;9.10;;
75744;SDS011;64359;51.366;-0.222;2022-10-22T11:12:43;12.00;;;8.40;;
75744;SDS011;64359;51.366;-0.222;2022-10-22T11:13:42;11.60;;;9.40;;
75744;SDS011;64359;51.366;-0.222;2022-10-22T11:14:44;17.50;;;9.10;;
75744;SDS011;64359;51.366;-0.222;2022-10-22T11:15:47;10.20;;;8.70;;
75744;SDS011;64359;51.366;-0.222;2022-10-22T11:16:47;11.10;;;7.80;;
75744;SDS011;64359;51.366;-0.222;2022-10-22T11:17:46;12.90;;;8.90;;
75744;SDS011;64359;51.366;-0.222;2022-10-22T11:18:44;15.80;;;9.00;;
75744;SDS011;64359;51.366;-0.222;2022-10-22T11:19:46;12.80;;;8.40;;
75744;SDS011;64359;51.366;-0.222;2022-10-22T11:20:48;13.10;;;9.80;;
75744;SDS011;64359;51.366;-0.222;2022-10-22T11:21:53;12.70;;;8.90;;
75744;SDS011;64359;51.366;-0.222;2022-10-22T11:22:56;11.60;;;8.70;;
75744;SDS011;64359;51.366;-0.222;2022-10-22T11:23:57;12.10;;;8.20;;
75744;SDS011;64359;51.366;-0.222;2022-10-22T11:25:02;12.10;;;8.40;;
75744;SDS011;64359;51.366;-0.222;2022-10-22T11:26:05;12.70;;;8.70;;
75744;SDS011;64359;51.366;-0.222;2022-10-22T11:27:09;11.40;;;8.40;;
75744;SDS011;64359;51.366;-0.222;2022-10-22T11:28:11;14.20;;;8.70;;
75744;SDS011;64359;51.366;-0.222;2022-10-22T11:29:10;9.70;;;7.70;;
75744;SDS011;64359;51.366;-0.222;2022-10-22T11:30:12;11.60;;;8.00;;
75744;SDS011;64359;51.366;-0.222;2022-10-22T11:31:09;12.50;;;8.20;;
75744;SDS011;64359;51.366;-0.222;2022-10-22T11:32:07;12.70;;;8.80;;
75744;SDS011;64359;51.366;-0.222;2022-10-22T11:33:09;13.60;;;8.80;;
75744;SDS011;64359;51.366;-0.222;2022-10-22T11:35:08;10.30;;;7.70;;
75744;SDS011;64359;51.366;-0.222;2022-10-22T11:36:07;11.90;;;7.60;;
75744;SDS011;64359;51.366;-0.222;2022-10-22T11:37:03;9.90;;;7.50;;
75744;SDS011;64359;51.366;-0.222;2022-10-22T11:38:02;10.40;;;7.70;;
75744;SDS011;64359;51.366;-0.222;2022-10-22T11:39:00;13.30;;;6.80;;
75744;SDS011;64359;51.366;-0.222;2022-10-22T11:39:56;11.80;;;7.70;;
75744;SDS011;64359;51.366;-0.222;2022-10-22T11:41:48;12.90;;;7.30;;
75744;SDS011;64359;51.366;-0.222;2022-10-22T11:42:45;9.30;;;8.20;;
75744;SDS011;64359;51.366;-0.222;2022-10-22T11:44:03;11.40;;;7.90;;
75744;SDS011;64359;51.366;-0.222;2022-10-22T11:45:28;11.70;;;7.20;;
75744;SDS011;64359;51.366;-0.222;2022-10-22T11:46:28;9.90;;;7.80;;
75744;SDS011;64359;51.366;-0.222;2022-10-22T11:47:31;11.70;;;7.70;;
75744;SDS011;64359;51.366;-0.222;2022-10-22T11:48:27;13.00;;;8.80;;
75744;SDS011;64359;51.366;-0.222;2022-10-22T11:49:40;10.10;;;6.90;;
75744;SDS011;64359;51.366;-0.222;2022-10-22T11:50:48;9.80;;;6.90;;
75744;SDS011;64359;51.366;-0.222;2022-10-22T11:51:45;13.20;;;8.30;;
75744;SDS011;64359;51.366;-0.222;2022-10-22T11:52:52;10.20;;;7.70;;
75744;SDS011;64359;51.366;-0.222;2022-10-22T11:53:55;10.70;;;6.60;;
75744;SDS011;64359;51.366;-0.222;2022-10-22T11:54:56;11.90;;;7.10;;
75744;SDS011;64359;51.366;-0.222;2022-10-22T11:55:55;10.90;;;8.00;;
75744;SDS011;64359;51.366;-0.222;2022-10-22T11:56:52;10.60;;;6.60;;
75744;SDS011;64359;51.366;-0.222;2022-10-22T11:58:25;13.40;;;7.30;;
75744;SDS011;64359;51.366;-0.222;2022-10-22T11:59:32;9.90;;;6.60;;
75744;SDS011;64359;51.366;-0.222;2022-10-22T12:00:33;13.40;;;6.90;;
75744;SDS011;64359;51.366;-0.222;2022-10-22T12:01:40;10.30;;;6.30;;
75744;SDS011;64359;51.366;-0.222;2022-10-22T12:02:43;10.10;;;7.10;;
75744;SDS011;64359;51.366;-0.222;2022-10-22T12:03:39;10.20;;;6.60;;
75744;SDS011;64359;51.366;-0.222;2022-10-22T12:04:40;10.80;;;6.50;;
75744;SDS011;64359;51.366;-0.222;2022-10-22T12:05:35;10.30;;;6.80;;
75744;SDS011;64359;51.366;-0.222;2022-10-22T12:06:50;11.40;;;6.90;;
75744;SDS011;64359;51.366;-0.222;2022-10-22T12:07:52;10.50;;;6.40;;
75744;SDS011;64359;51.366;-0.222;2022-10-22T12:08:53;19.40;;;6.90;;
75744;SDS011;64359;51.366;-0.222;2022-10-22T12:09:51;9.50;;;5.80;;
75744;SDS011;64359;51.366;-0.222;2022-10-22T12:10:55;9.10;;;6.90;;
75744;SDS011;64359;51.366;-0.222;2022-10-22T12:11:54;10.00;;;7.00;;
75744;SDS011;64359;51.366;-0.222;2022-10-22T12:13:03;8.70;;;6.20;;
75744;SDS011;64359;51.366;-0.222;2022-10-22T12:14:13;9.80;;;6.40;;
75744;SDS011;64359;51.366;-0.222;2022-10-22T12:15:21;10.10;;;6.20;;
75744;SDS011;64359;51.366;-0.222;2022-10-22T12:16:18;7.90;;;5.30;;
75744;SDS011;64359;51.366;-0.222;2022-10-22T12:17:17;10.80;;;6.70;;
75744;SDS011;64359;51.366;-0.222;2022-10-22T12:18:13;9.20;;;6.10;;
75744;SDS011;64359;51.366;-0.222;2022-10-22T12:19:12;11.50;;;6.50;;
75744;SDS011;64359;51.366;-0.222;2022-10-22T12:20:12;9.70;;;6.20;;
75744;SDS011;64359;51.366;-0.222;2022-10-22T12:21:10;8.50;;;5.70;;
75744;SDS011;64359;51.366;-0.222;2022-10-22T12:22:12;7.10;;;5.90;;
75744;SDS011;64359;51.366;-0.222;2022-10-22T12:23:10;9.70;;;5.00;;
75744;SDS011;64359;51.366;-0.222;2022-10-22T12:24:06;10.00;;;5.10;;
75744;SDS011;64359;51.366;-0.222;2022-10-22T12:25:08;7.20;;;5.00;;
75744;SDS011;64359;51.366;-0.222;2022-10-22T12:26:23;7.80;;;5.60;;
75744;SDS011;64359;51.366;-0.222;2022-10-22T12:27:20;8.80;;;5.20;;
75744;SDS011;64359;51.366;-0.222;2022-10-22T12:28:15;7.80;;;6.00;;
75744;SDS011;64359;51.366;-0.222;2022-10-22T12:29:13;6.50;;;4.50;;
75744;SDS011;64359;51.366;-0.222;2022-10-22T12:30:17;8.00;;;4.60;;
75744;SDS011;64359;51.366;-0.222;2022-10-22T12:31:15;10.00;;;4.50;;
75744;SDS011;64359;51.366;-0.222;2022-10-22T12:32:10;6.60;;;4.60;;
75744;SDS011;64359;51.366;-0.222;2022-10-22T12:33:16;7.40;;;4.70;;
75744;SDS011;64359;51.366;-0.222;2022-10-22T12:34:14;7.50;;;4.50;;
75744;SDS011;64359;51.366;-0.222;2022-10-22T12:35:13;9.60;;;5.10;;
75744;SDS011;64359;51.366;-0.222;2022-10-22T12:36:14;7.50;;;5.10;;
75744;SDS011;64359;51.366;-0.222;2022-10-22T12:37:10;8.60;;;5.20;;
75744;SDS011;64359;51.366;-0.222;2022-10-22T12:38:12;9.20;;;5.70;;
75744;SDS011;64359;51.366;-0.222;2022-10-22T12:39:10;7.90;;;4.40;;
75744;SDS011;64359;51.366;-0.222;2022-10-22T12:40:16;6.90;;;4.70;;
75744;SDS011;64359;51.366;-0.222;2022-10-22T12:41:14;8.70;;;4.90;;
75744;SDS011;64359;51.366;-0.222;2022-10-22T12:42:12;9.40;;;4.50;;
75744;SDS011;64359;51.366;-0.222;2022-10-22T12:43:09;8.00;;;4.70;;
75744;SDS011;64359;51.366;-0.222;2022-10-22T12:44:05;10.50;;;4.90;;
75744;SDS011;64359;51.366;-0.222;2022-10-22T12:45:03;8.80;;;4.50;;
75744;SDS011;64359;51.366;-0.222;2022-10-22T12:45:59;6.40;;;4.60;;
75744;SDS011;64359;51.366;-0.222;2022-10-22T12:46:53;7.30;;;4.70;;
75744;SDS011;64359;51.366;-0.222;2022-10-22T12:47:49;6.00;;;4.50;;
75744;SDS011;64359;51.366;-0.222;2022-10-22T12:48:47;4.80;;;4.10;;
75744;SDS011;64359;51.366;-0.222;2022-10-22T12:49:43;7.00;;;4.20;;
75744;SDS011;64359;51.366;-0.222;2022-10-22T12:50:42;7.40;;;4.20;;
75744;SDS011;64359;51.366;-0.222;2022-10-22T12:51:38;7.20;;;4.60;;
75744;SDS011;64359;51.366;-0.222;2022-10-22T12:52:33;10.80;;;5.20;;
75744;SDS011;64359;51.366;-0.222;2022-10-22T12:53:28;8.50;;;5.10;;
75744;SDS011;64359;51.366;-0.222;2022-10-22T12:54:25;8.70;;;4.20;;
75744;SDS011;64359;51.366;-0.222;2022-10-22T12:56:20;10.00;;;4.30;;
75744;SDS011;64359;51.366;-0.222;2022-10-22T12:57:17;6.50;;;4.70;;
75744;SDS011;64359;51.366;-0.222;2022-10-22T12:58:16;8.90;;;4.70;;
75744;SDS011;64359;51.366;-0.222;2022-10-22T12:59:14;7.10;;;4.20;;
75744;SDS011;64359;51.366;-0.222;2022-10-22T13:00:23;7.60;;;4.30;;
75744;SDS011;64359;51.366;-0.222;2022-10-22T13:01:24;8.60;;;4.60;;
75744;SDS011;64359;51.366;-0.222;2022-10-22T13:02:24;6.30;;;4.20;;
75744;SDS011;64359;51.366;-0.222;2022-10-22T13:05:20;6.20;;;4.10;;
75744;SDS011;64359;51.366;-0.222;2022-10-22T13:06:22;7.50;;;3.90;;
75744;SDS011;64359;51.366;-0.222;2022-10-22T13:07:17;11.10;;;3.90;;
75744;SDS011;64359;51.366;-0.222;2022-10-22T13:08:10;6.90;;;4.60;;
75744;SDS011;64359;51.366;-0.222;2022-10-22T13:09:11;6.90;;;3.80;;
75744;SDS011;64359;51.366;-0.222;2022-10-22T13:10:13;7.60;;;4.30;;
75744;SDS011;64359;51.366;-0.222;2022-10-22T13:11:08;9.20;;;4.20;;
75744;SDS011;64359;51.366;-0.222;2022-10-22T13:12:02;6.70;;;3.90;;
75744;SDS011;64359;51.366;-0.222;2022-10-22T13:12:57;7.60;;;3.40;;
75744;SDS011;64359;51.366;-0.222;2022-10-22T13:13:59;7.70;;;4.00;;
75744;SDS011;64359;51.366;-0.222;2022-10-22T13:14:54;6.30;;;3.60;;
75744;SDS011;64359;51.366;-0.222;2022-10-22T13:15:47;10.60;;;4.60;;
75744;SDS011;64359;51.366;-0.222;2022-10-22T13:16:39;6.50;;;4.30;;
75744;SDS011;64359;51.366;-0.222;2022-10-22T13:17:39;7.60;;;3.60;;
75744;SDS011;64359;51.366;-0.222;2022-10-22T13:18:32;7.10;;;4.50;;
75744;SDS011;64359;51.366;-0.222;2022-10-22T13:19:41;7.90;;;3.80;;
75744;SDS011;64359;51.366;-0.222;2022-10-22T13:20:36;8.50;;;4.30;;
75744;SDS011;64359;51.366;-0.222;2022-10-22T13:21:41;6.70;;;4.50;;
75744;SDS011;64359;51.366;-0.222;2022-10-22T13:22:40;7.90;;;4.30;;
75744;SDS011;64359;51.366;-0.222;2022-10-22T13:23:50;8.10;;;4.00;;
75744;SDS011;64359;51.366;-0.222;2022-10-22T13:24:48;8.20;;;4.10;;
75744;SDS011;64359;51.366;-0.222;2022-10-22T13:25:40;7.90;;;3.60;;
75744;SDS011;64359;51.366;-0.222;2022-10-22T13:26:34;5.70;;;3.50;;
75744;SDS011;64359;51.366;-0.222;2022-10-22T13:27:27;7.40;;;3.60;;
75744;SDS011;64359;51.366;-0.222;2022-10-22T13:28:21;7.20;;;3.90;;
75744;SDS011;64359;51.366;-0.222;2022-10-22T13:29:15;6.40;;;4.00;;
75744;SDS011;64359;51.366;-0.222;2022-10-22T13:30:16;13.30;;;4.20;;
75744;SDS011;64359;51.366;-0.222;2022-10-22T13:31:14;7.90;;;3.70;;
75744;SDS011;64359;51.366;-0.222;2022-10-22T13:32:17;7.70;;;3.90;;
75744;SDS011;64359;51.366;-0.222;2022-10-22T13:33:21;6.60;;;3.90;;
75744;SDS011;64359;51.366;-0.222;2022-10-22T13:34:19;9.30;;;4.00;;
75744;SDS011;64359;51.366;-0.222;2022-10-22T13:35:14;6.00;;;3.00;;
75744;SDS011;64359;51.366;-0.222;2022-10-22T13:36:11;5.70;;;3.40;;
75744;SDS011;64359;51.366;-0.222;2022-10-22T13:37:07;7.60;;;2.90;;
75744;SDS011;64359;51.366;-0.222;2022-10-22T13:38:00;7.90;;;3.50;;
75744;SDS011;64359;51.366;-0.222;2022-10-22T13:38:53;7.80;;;3.20;;
75744;SDS011;64359;51.366;-0.222;2022-10-22T13:39:46;14.00;;;3.60;;
75744;SDS011;64359;51.366;-0.222;2022-10-22T13:40:38;10.00;;;3.90;;
75744;SDS011;64359;51.366;-0.222;2022-10-22T13:41:36;7.00;;;3.30;;
75744;SDS011;64359;51.366;-0.222;2022-10-22T13:42:30;7.60;;;3.40;;
75744;SDS011;64359;51.366;-0.222;2022-10-22T13:43:23;7.00;;;3.10;;
75744;SDS011;64359;51.366;-0.222;2022-10-22T13:44:16;9.10;;;3.90;;
75744;SDS011;64359;51.366;-0.222;2022-10-22T13:45:09;7.20;;;3.50;;
75744;SDS011;64359;51.366;-0.222;2022-10-22T13:46:04;8.00;;;3.40;;
75744;SDS011;64359;51.366;-0.222;2022-10-22T13:46:59;6.30;;;3.70;;
75744;SDS011;64359;51.366;-0.222;2022-10-22T13:47:52;18.70;;;4.10;;
75744;SDS011;64359;51.366;-0.222;2022-10-22T13:48:46;10.20;;;4.10;;
75744;SDS011;64359;51.366;-0.222;2022-10-22T13:49:40;7.20;;;3.30;;
75744;SDS011;64359;51.366;-0.222;2022-10-22T13:50:34;9.70;;;3.30;;
75744;SDS011;64359;51.366;-0.222;2022-10-22T13:51:28;9.90;;;3.50;;
75744;SDS011;64359;51.366;-0.222;2022-10-22T13:52:27;7.30;;;3.80;;
75744;SDS011;64359;51.366;-0.222;2022-10-22T13:53:25;7.10;;;3.60;;
75744;SDS011;64359;51.366;-0.222;2022-10-22T13:54:20;7.30;;;3.50;;
75744;SDS011;64359;51.366;-0.222;2022-10-22T13:55:16;6.00;;;3.30;;
75744;SDS011;64359;51.366;-0.222;2022-10-22T13:56:12;9.30;;;3.60;;
75744;SDS011;64359;51.366;-0.222;2022-10-22T13:57:08;10.40;;;3.70;;
75744;SDS011;64359;51.366;-0.222;2022-10-22T13:58:05;6.10;;;3.30;;
75744;SDS011;64359;51.366;-0.222;2022-10-22T13:59:01;7.30;;;3.40;;
75744;SDS011;64359;51.366;-0.222;2022-10-22T13:59:53;6.10;;;3.50;;
75744;SDS011;64359;51.366;-0.222;2022-10-22T14:00:47;7.00;;;3.40;;
75744;SDS011;64359;51.366;-0.222;2022-10-22T14:01:44;6.40;;;3.30;;
75744;SDS011;64359;51.366;-0.222;2022-10-22T14:02:36;10.30;;;2.90;;
75744;SDS011;64359;51.366;-0.222;2022-10-22T14:03:30;5.00;;;3.20;;
75744;SDS011;64359;51.366;-0.222;2022-10-22T14:04:24;6.90;;;3.40;;
75744;SDS011;64359;51.366;-0.222;2022-10-22T14:05:17;4.70;;;3.20;;
75744;SDS011;64359;51.366;-0.222;2022-10-22T14:06:11;7.40;;;3.60;;
75744;SDS011;64359;51.366;-0.222;2022-10-22T14:07:07;6.80;;;3.90;;
75744;SDS011;64359;51.366;-0.222;2022-10-22T14:08:04;7.60;;;3.10;;
75744;SDS011;64359;51.366;-0.222;2022-10-22T14:09:54;7.00;;;3.50;;
75744;SDS011;64359;51.366;-0.222;2022-10-22T14:10:46;5.60;;;3.20;;
75744;SDS011;64359;51.366;-0.222;2022-10-22T14:11:40;6.60;;;3.10;;
75744;SDS011;64359;51.366;-0.222;2022-10-22T14:12:33;7.00;;;4.10;;
75744;SDS011;64359;51.366;-0.222;2022-10-22T14:13:25;9.90;;;3.30;;
75744;SDS011;64359;51.366;-0.222;2022-10-22T14:14:18;7.50;;;3.20;;
75744;SDS011;64359;51.366;-0.222;2022-10-22T14:15:12;9.90;;;3.40;;
75744;SDS011;64359;51.366;-0.222;2022-10-22T14:16:06;11.40;;;3.40;;
75744;SDS011;64359;51.366;-0.222;2022-10-22T14:17:05;4.90;;;3.20;;
75744;SDS011;64359;51.366;-0.222;2022-10-22T14:18:03;7.00;;;3.10;;
75744;SDS011;64359;51.366;-0.222;2022-10-22T14:18:57;6.90;;;3.40;;
75744;SDS011;64359;51.366;-0.222;2022-10-22T14:19:51;5.90;;;3.40;;
75744;SDS011;64359;51.366;-0.222;2022-10-22T14:20:44;7.20;;;3.30;;
75744;SDS011;64359;51.366;-0.222;2022-10-22T14:21:36;7.30;;;3.20;;
75744;SDS011;64359;51.366;-0.222;2022-10-22T14:22:30;6.30;;;4.00;;
75744;SDS011;64359;51.366;-0.222;2022-10-22T14:23:24;8.80;;;3.50;;
75744;SDS011;64359;51.366;-0.222;2022-10-22T14:24:18;7.40;;;3.40;;
75744;SDS011;64359;51.366;-0.222;2022-10-22T14:25:12;8.50;;;3.40;;
75744;SDS011;64359;51.366;-0.222;2022-10-22T14:26:06;5.60;;;2.70;;
75744;SDS011;64359;51.366;-0.222;2022-10-22T14:26:59;6.20;;;2.70;;
75744;SDS011;64359;51.366;-0.222;2022-10-22T14:27:52;9.20;;;3.30;;
75744;SDS011;64359;51.366;-0.222;2022-10-22T14:28:44;7.50;;;2.90;;
75744;SDS011;64359;51.366;-0.222;2022-10-22T14:29:37;8.00;;;2.80;;
75744;SDS011;64359;51.366;-0.222;2022-10-22T14:30:30;5.50;;;3.40;;
75744;SDS011;64359;51.366;-0.222;2022-10-22T14:31:22;7.40;;;2.90;;
75744;SDS011;64359;51.366;-0.222;2022-10-22T14:32:16;7.30;;;3.10;;
75744;SDS011;64359;51.366;-0.222;2022-10-22T14:33:11;7.30;;;3.80;;
75744;SDS011;64359;51.366;-0.222;2022-10-22T14:34:05;7.50;;;2.80;;
75744;SDS011;64359;51.366;-0.222;2022-10-22T14:35:00;3.60;;;2.90;;
75744;SDS011;64359;51.366;-0.222;2022-10-22T14:35:52;6.10;;;2.50;;
75744;SDS011;64359;51.366;-0.222;2022-10-22T14:36:45;4.50;;;2.40;;
75744;SDS011;64359;51.366;-0.222;2022-10-22T14:37:38;4.70;;;2.60;;
75744;SDS011;64359;51.366;-0.222;2022-10-22T14:38:31;4.80;;;2.50;;
75744;SDS011;64359;51.366;-0.222;2022-10-22T14:39:23;3.80;;;2.90;;
75744;SDS011;64359;51.366;-0.222;2022-10-22T14:40:16;5.10;;;2.70;;
75744;SDS011;64359;51.366;-0.222;2022-10-22T14:41:14;5.00;;;2.60;;
75744;SDS011;64359;51.366;-0.222;2022-10-22T14:42:11;4.10;;;2.40;;
75744;SDS011;64359;51.366;-0.222;2022-10-22T14:43:04;3.10;;;2.40;;
75744;SDS011;64359;51.366;-0.222;2022-10-22T14:43:57;3.80;;;2.50;;
75744;SDS011;64359;51.366;-0.222;2022-10-22T14:44:55;4.60;;;2.80;;
75744;SDS011;64359;51.366;-0.222;2022-10-22T14:45:50;5.70;;;3.00;;
75744;SDS011;64359;51.366;-0.222;2022-10-22T14:46:43;5.80;;;2.90;;
75744;SDS011;64359;51.366;-0.222;2022-10-22T14:47:36;4.40;;;2.30;;
75744;SDS011;64359;51.366;-0.222;2022-10-22T14:48:29;5.30;;;3.10;;
75744;SDS011;64359;51.366;-0.222;2022-10-22T14:49:21;4.00;;;2.80;;
75744;SDS011;64359;51.366;-0.222;2022-10-22T14:50:14;5.40;;;2.90;;
75744;SDS011;64359;51.366;-0.222;2022-10-22T14:51:08;3.20;;;2.40;;
75744;SDS011;64359;51.366;-0.222;2022-10-22T14:52:55;4.90;;;2.80;;
75744;SDS011;64359;51.366;-0.222;2022-10-22T14:53:49;4.70;;;2.60;;
75744;SDS011;64359;51.366;-0.222;2022-10-22T14:54:42;4.50;;;2.60;;
75744;SDS011;64359;51.366;-0.222;2022-10-22T14:55:35;5.30;;;2.50;;
75744;SDS011;64359;51.366;-0.222;2022-10-22T14:56:27;3.60;;;2.60;;
75744;SDS011;64359;51.366;-0.222;2022-10-22T14:57:19;5.60;;;2.70;;
75744;SDS011;64359;51.366;-0.222;2022-10-22T14:58:12;4.50;;;2.30;;
75744;SDS011;64359;51.366;-0.222;2022-10-22T14:59:05;4.40;;;2.50;;
75744;SDS011;64359;51.366;-0.222;2022-10-22T14:59:57;5.80;;;2.50;;
75744;SDS011;64359;51.366;-0.222;2022-10-22T15:00:50;4.20;;;2.30;;
75744;SDS011;64359;51.366;-0.222;2022-10-22T15:01:43;4.10;;;2.40;;
75744;SDS011;64359;51.366;-0.222;2022-10-22T15:02:35;4.70;;;2.70;;
75744;SDS011;64359;51.366;-0.222;2022-10-22T15:03:28;6.30;;;2.60;;
75744;SDS011;64359;51.366;-0.222;2022-10-22T15:04:21;7.80;;;2.70;;
75744;SDS011;64359;51.366;-0.222;2022-10-22T15:05:15;5.80;;;2.30;;
75744;SDS011;64359;51.366;-0.222;2022-10-22T15:06:08;4.10;;;2.40;;
75744;SDS011;64359;51.366;-0.222;2022-10-22T15:07:02;5.80;;;2.20;;
75744;SDS011;64359;51.366;-0.222;2022-10-22T15:07:54;3.00;;;2.40;;
75744;SDS011;64359;51.366;-0.222;2022-10-22T15:08:50;5.40;;;2.50;;
75744;SDS011;64359;51.366;-0.222;2022-10-22T15:09:43;3.90;;;2.20;;
75744;SDS011;64359;51.366;-0.222;2022-10-22T15:10:36;3.80;;;2.50;;
75744;SDS011;64359;51.366;-0.222;2022-10-22T15:11:29;4.30;;;2.40;;
75744;SDS011;64359;51.366;-0.222;2022-10-22T15:12:22;4.80;;;2.50;;
75744;SDS011;64359;51.366;-0.222;2022-10-22T15:13:15;3.90;;;2.50;;
75744;SDS011;64359;51.366;-0.222;2022-10-22T15:14:07;4.20;;;2.20;;
75744;SDS011;64359;51.366;-0.222;2022-10-22T15:15:00;4.40;;;2.80;;
75744;SDS011;64359;51.366;-0.222;2022-10-22T15:15:52;5.60;;;2.90;;
75744;SDS011;64359;51.366;-0.222;2022-10-22T15:16:45;3.20;;;2.40;;
75744;SDS011;64359;51.366;-0.222;2022-10-22T15:17:37;5.60;;;2.50;;
75744;SDS011;64359;51.366;-0.222;2022-10-22T15:18:29;4.10;;;2.30;;
75744;SDS011;64359;51.366;-0.222;2022-10-22T15:19:22;3.80;;;2.50;;
75744;SDS011;64359;51.366;-0.222;2022-10-22T15:20:15;8.20;;;2.40;;
75744;SDS011;64359;51.366;-0.222;2022-10-22T15:21:11;6.30;;;3.00;;
75744;SDS011;64359;51.366;-0.222;2022-10-22T15:22:06;5.60;;;2.60;;
75744;SDS011;64359;51.366;-0.222;2022-10-22T15:22:59;3.00;;;2.10;;
75744;SDS011;64359;51.366;-0.222;2022-10-22T15:23:51;2.80;;;2.20;;
75744;SDS011;64359;51.366;-0.222;2022-10-22T15:24:44;4.20;;;2.20;;
75744;SDS011;64359;51.366;-0.222;2022-10-22T15:25:38;4.80;;;2.30;;
75744;SDS011;64359;51.366;-0.222;2022-10-22T15:26:34;4.50;;;2.40;;
75744;SDS011;64359;51.366;-0.222;2022-10-22T15:27:27;4.50;;;2.30;;
75744;SDS011;64359;51.366;-0.222;2022-10-22T15:28:20;4.30;;;2.30;;
75744;SDS011;64359;51.366;-0.222;2022-10-22T15:29:13;4.00;;;2.40;;
75744;SDS011;64359;51.366;-0.222;2022-10-22T15:30:06;8.30;;;2.90;;
75744;SDS011;64359;51.366;-0.222;2022-10-22T15:30:59;11.50;;;2.50;;
75744;SDS011;64359;51.366;-0.222;2022-10-22T15:31:52;4.50;;;2.60;;
75744;SDS011;64359;51.366;-0.222;2022-10-22T15:32:47;5.10;;;2.90;;
75744;SDS011;64359;51.366;-0.222;2022-10-22T15:33:40;7.10;;;2.80;;
75744;SDS011;64359;51.366;-0.222;2022-10-22T15:34:33;6.10;;;2.80;;
75744;SDS011;64359;51.366;-0.222;2022-10-22T15:35:27;7.40;;;2.60;;